Time;durP1;ratioP1;P1;durP2;ratioP2;P2;SDS_P1;SDS_P2;PMS_P1;PMS_P2;Temp;Humidity;BMP_temperature;BMP_pressure;BME280_temperature;BME280_humidity;BME280_pressure;Samples;Min_cycle;Max_cycle;Signal;HPM_P1;HPM_P2
2023/04/01 00:01:13;;;;;;;13.50;6.93;;;;;;;;;;12806884;19;20535;-67
2023/04/01 00:11:57;;;;;;;16.90;6.78;;;;;;;;;;12709431;19;2006041;-67
2023/04/01 00:16:47;;;;;;;12.85;6.25;;;;;;;;;;12815719;19;20492;-67
2023/04/01 00:21:22;;;;;;;8.32;4.78;;;;;;;;;;12814525;19;20560;-67
2023/04/01 00:27:08;;;;;;;10.70;4.75;;;;;;;;;;12818251;19;20347;-67
2023/04/01 00:31:48;;;;;;;;;;;;;;;;;;12713253;19;2005183;-67
2023/04/01 00:36:38;;;;;;;9.30;4.70;;;;;;;;;;12818137;19;20242;-67
2023/04/01 00:40:59;;;;;;;10.20;4.80;;;;;;;;;;12828409;19;20460;-66
2023/04/01 00:45:54;;;;;;;9.65;3.70;;;;;;;;;;12830394;19;20464;-67
2023/04/01 00:51:38;;;;;;;9.25;4.35;;;;;;;;;;12820958;19;20327;-66
2023/04/01 00:56:37;;;;;;;8.80;3.97;;;;;;;;;;12820616;19;20021;-66
2023/04/01 01:07:18;;;;;;;5.57;3.30;;;;;;;;;;12818523;19;20015;-66
2023/04/01 01:12:14;;;;;;;4.38;2.97;;;;;;;;;;12829268;19;20352;-66
2023/04/01 01:24:04;;;;;;;4.05;2.63;;;;;;;;;;12822263;19;20403;-67
2023/04/01 01:29:47;;;;;;;5.03;1.80;;;;;;;;;;12818709;19;20322;-66
2023/04/01 01:34:53;;;;;;;6.13;2.95;;;;;;;;;;12820434;19;20441;-66
2023/04/01 01:40:08;;;;;;;3.88;2.28;;;;;;;;;;12811280;19;20493;-67
2023/04/01 01:45:06;;;;;;;6.35;2.83;;;;;;;;;;12810006;19;20042;-67
2023/04/01 01:49:41;;;;;;;5.40;2.88;;;;;;;;;;12809393;19;20015;-67
2023/04/01 01:54:36;;;;;;;6.75;3.15;;;;;;;;;;12811359;19;20010;-66
2023/04/01 01:59:55;;;;;;;6.22;2.83;;;;;;;;;;12812938;19;20421;-67
2023/04/01 02:05:10;;;;;;;12.52;4.05;;;;;;;;;;12810032;19;20524;-67
2023/04/01 02:10:30;;;;;;;9.07;3.55;;;;;;;;;;12801864;19;20442;-66
2023/04/01 02:15:20;;;;;;;6.20;3.25;;;;;;;;;;12803585;19;20434;-67
2023/04/01 02:20:50;;;;;;;8.45;3.75;;;;;;;;;;12803310;19;20299;-67
2023/04/01 02:25:37;;;;;;;6.10;3.80;;;;;;;;;;12798045;19;20434;-67
2023/04/01 02:30:42;;;;;;;6.03;3.30;;;;;;;;;;12810545;19;20298;-67
2023/04/01 02:35:41;;;;;;;6.43;3.20;;;;;;;;;;12816130;19;20433;-66
2023/04/01 02:46:41;;;;;;;4.90;2.47;;;;;;;;;;12813396;19;20323;-66
2023/04/01 02:51:11;;;;;;;7.05;3.55;;;;;;;;;;12813644;19;20383;-67
2023/04/01 03:01:11;;;;;;;5.75;3.13;;;;;;;;;;12815251;19;20314;-67
2023/04/01 03:05:40;;;;;;;6.68;3.08;;;;;;;;;;12820245;19;20015;-66
2023/04/01 03:10:38;;;;;;;5.82;2.72;;;;;;;;;;12818199;19;20327;-67
2023/04/01 03:15:09;;;;;;;7.13;2.92;;;;;;;;;;12820930;19;20319;-66
2023/04/01 03:21:04;;;;;;;6.10;2.50;;;;;;;;;;12821759;19;20398;-66
2023/04/01 03:25:45;;;;;;;6.43;2.65;;;;;;;;;;12818459;19;20383;-66
2023/04/01 03:30:06;;;;;;;7.28;2.70;;;;;;;;;;12820735;19;20428;-67
2023/04/01 03:34:45;;;;;;;19.98;7.68;;;;;;;;;;12821690;19;20330;-66
2023/04/01 03:45:50;;;;;;;6.88;3.25;;;;;;;;;;12818187;19;20315;-67
2023/04/01 03:50:20;;;;;;;7.53;3.85;;;;;;;;;;12823518;19;20070;-66
2023/04/01 03:56:17;;;;;;;7.97;4.07;;;;;;;;;;12816793;19;20018;-67
2023/04/01 04:01:37;;;;;;;15.07;4.50;;;;;;;;;;12819431;19;20438;-67
2023/04/01 04:06:05;;;;;;;9.15;4.22;;;;;;;;;;12817528;19;20402;-68
2023/04/01 04:10:49;;;;;;;12.32;4.57;;;;;;;;;;12821675;19;20434;-68
2023/04/01 04:20:05;;;;;;;10.68;5.03;;;;;;;;;;12826985;19;20623;-67
2023/04/01 04:30:49;;;;;;;10.75;5.07;;;;;;;;;;12823559;19;20085;-67
2023/04/01 04:35:40;;;;;;;9.10;4.22;;;;;;;;;;12830233;19;20047;-66
2023/04/01 04:40:02;;;;;;;9.90;4.95;;;;;;;;;;12829675;19;20462;-67
2023/04/01 04:55:46;;;;;;;6.22;3.00;;;;;;;;;;12828218;19;20489;-66
2023/04/01 05:00:08;;;;;;;4.25;2.95;;;;;;;;;;12829324;19;20754;-67
2023/04/01 05:04:54;;;;;;;10.25;4.68;;;;;;;;;;12827394;19;20485;-66
2023/04/01 05:09:57;;;;;;;7.00;3.30;;;;;;;;;;12815219;19;20850;-66
2023/04/01 05:14:40;;;;;;;6.57;3.05;;;;;;;;;;12818665;19;20467;-67
2023/04/01 05:19:17;;;;;;;9.00;3.15;;;;;;;;;;12819364;19;20403;-67
2023/04/01 05:30:09;;;;;;;26.25;13.38;;;;;;;;;;12714619;19;2005312;-67
2023/04/01 05:34:53;;;;;;;13.98;7.22;;;;;;;;;;12817611;19;20428;-67
2023/04/01 05:39:20;;;;;;;12.13;6.65;;;;;;;;;;12819288;19;20514;-67
2023/04/01 05:50:39;;;;;;;15.07;8.20;;;;;;;;;;12716745;19;2005166;-67
2023/04/01 05:55:37;;;;;;;9.13;5.15;;;;;;;;;;12818273;19;20431;-67
2023/04/01 06:06:47;;;;;;;15.77;7.25;;;;;;;;;;12815543;19;20796;-67
2023/04/01 06:12:11;;;;;;;16.77;8.75;;;;;;;;;;12820316;19;20045;-67
2023/04/01 06:17:45;;;;;;;8.00;5.13;;;;;;;;;;12828005;19;20440;-67
2023/04/01 06:23:49;;;;;;;11.05;5.55;;;;;;;;;;12721397;19;2004950;-67
2023/04/01 06:40:43;;;;;;;10.68;5.40;;;;;;;;;;12713113;19;2006067;-67
2023/04/01 06:45:46;;;;;;;9.57;4.20;;;;;;;;;;12813732;19;20486;-67
2023/04/01 06:51:03;;;;;;;17.02;11.60;;;;;;;;;;12814070;19;20370;-67
2023/04/01 07:02:41;;;;;;;12.82;5.95;;;;;;;;;;12814651;19;20028;-68
2023/04/01 07:07:41;;;;;;;11.25;6.15;;;;;;;;;;12812944;19;20458;-67
2023/04/01 07:19:14;;;;;;;15.10;6.60;;;;;;;;;;12823315;19;21174;-67
2023/04/01 07:24:11;;;;;;;8.20;3.97;;;;;;;;;;12820782;19;20763;-67
2023/04/01 07:35:09;;;;;;;16.10;9.70;;;;;;;;;;12806262;19;20425;-67
2023/04/01 07:40:21;;;;;;;11.18;3.97;;;;;;;;;;12815992;19;20453;-67
2023/04/01 07:52:17;;;;;;;9.27;4.78;;;;;;;;;;12710668;19;2004960;-67
2023/04/01 07:57:41;;;;;;;13.70;8.15;;;;;;;;;;12810099;19;20315;-67
2023/04/01 08:03:00;;;;;;;20.15;10.55;;;;;;;;;;12820099;19;20465;-67
2023/04/01 08:14:00;;;;;;;7.30;3.58;;;;;;;;;;12814036;19;20433;-67
2023/04/01 08:19:39;;;;;;;6.82;3.55;;;;;;;;;;12819532;19;20039;-67
2023/04/01 08:24:52;;;;;;;7.05;4.45;;;;;;;;;;12708510;19;2004903;-67
2023/04/01 08:30:16;;;;;;;4.72;3.30;;;;;;;;;;12808663;19;20441;-67
2023/04/01 08:35:17;;;;;;;9.85;4.80;;;;;;;;;;12808668;19;20018;-67
2023/04/01 08:40:57;;;;;;;12.70;7.60;;;;;;;;;;12811121;19;20318;-68
2023/04/01 08:46:44;;;;;;;43.80;24.17;;;;;;;;;;12705844;19;2004590;-68
2023/04/01 08:52:49;;;;;;;7.90;4.18;;;;;;;;;;12880754;19;20304;-68
2023/04/01 09:09:51;;;;;;;15.90;7.80;;;;;;;;;;12876718;19;20355;-68
2023/04/01 09:21:02;;;;;;;9.63;4.50;;;;;;;;;;12876908;19;20318;-68
2023/04/01 09:26:39;;;;;;;6.72;4.07;;;;;;;;;;12879419;19;20362;-68
2023/04/01 09:38:59;;;;;;;4.63;2.95;;;;;;;;;;12870388;19;20348;-68
2023/04/01 09:44:46;;;;;;;6.20;3.50;;;;;;;;;;12870203;19;20437;-68
2023/04/01 09:55:56;;;;;;;4.85;2.30;;;;;;;;;;12872267;19;20014;-67
2023/04/01 10:01:38;;;;;;;6.32;3.45;;;;;;;;;;12741281;19;2005066;-67
2023/04/01 10:07:01;;;;;;;4.55;3.10;;;;;;;;;;12818709;19;20310;-67
2023/04/01 10:12:55;;;;;;;7.13;3.42;;;;;;;;;;12819131;19;20383;-67
2023/04/01 10:18:04;;;;;;;6.38;3.47;;;;;;;;;;12817486;19;20480;-67
2023/04/01 10:29:36;;;;;;;3.80;2.22;;;;;;;;;;12718469;19;2005196;-67
2023/04/01 10:34:18;;;;;;;8.73;4.10;;;;;;;;;;12817844;19;20311;-67
2023/04/01 10:40:05;;;;;;;10.05;4.75;;;;;;;;;;12822187;19;20437;-67
2023/04/01 10:45:15;;;;;;;4.63;2.58;;;;;;;;;;12715829;19;2004969;-67
2023/04/01 10:50:37;;;;;;;4.53;2.72;;;;;;;;;;12814914;19;20320;-67
2023/04/01 11:01:46;;;;;;;12.68;6.45;;;;;;;;;;12715683;19;2005022;-67
2023/04/01 11:07:08;;;;;;;16.88;8.25;;;;;;;;;;12815951;19;20303;-66
2023/04/01 11:12:38;;;;;;;6.25;3.47;;;;;;;;;;12814517;19;20562;-66
2023/04/01 11:18:36;;;;;;;7.50;3.60;;;;;;;;;;12816323;19;20783;-67
2023/04/01 11:23:46;;;;;;;8.38;4.70;;;;;;;;;;12821486;19;20313;-67
2023/04/01 11:35:08;;;;;;;10.07;6.00;;;;;;;;;;12820745;19;20307;-66
2023/04/01 11:40:45;;;;;;;11.70;6.82;;;;;;;;;;12821160;19;20319;-65
2023/04/01 11:51:45;;;;;;;14.68;8.85;;;;;;;;;;12811995;19;20380;-66
2023/04/01 11:57:05;;;;;;;8.05;4.90;;;;;;;;;;12808314;19;20418;-67
2023/04/01 12:01:43;;;;;;;8.57;3.88;;;;;;;;;;12805530;19;20014;-66
2023/04/01 12:12:45;;;;;;;3.38;1.80;;;;;;;;;;12811688;19;20441;-67
2023/04/01 12:17:56;;;;;;;4.32;1.95;;;;;;;;;;12813667;19;20331;-66
2023/04/01 12:28:41;;;;;;;5.65;2.83;;;;;;;;;;12811039;19;20014;-66
2023/04/01 12:33:41;;;;;;;17.80;5.50;;;;;;;;;;12814655;19;20403;-66
2023/04/01 12:45:40;;;;;;;10.65;6.07;;;;;;;;;;12819420;19;20006;-67
2023/04/01 12:50:58;;;;;;;5.03;2.55;;;;;;;;;;12809328;19;23167;-66
2023/04/01 12:55:52;;;;;;;5.07;2.47;;;;;;;;;;12820276;19;20376;-67
2023/04/01 13:07:06;;;;;;;12.77;5.95;;;;;;;;;;12809683;19;20561;-67
2023/04/01 13:12:36;;;;;;;13.27;5.93;;;;;;;;;;12809321;19;20898;-66
2023/04/01 13:18:09;;;;;;;10.32;5.72;;;;;;;;;;12811173;19;20111;-66
2023/04/01 13:29:06;;;;;;;6.20;2.35;;;;;;;;;;12808562;19;20778;-66
2023/04/01 13:40:39;;;;;;;4.78;2.42;;;;;;;;;;12720609;19;2006361;-67
2023/04/01 13:46:03;;;;;;;5.88;3.28;;;;;;;;;;12826064;19;20006;-66
2023/04/01 13:57:37;;;;;;;4.05;1.95;;;;;;;;;;12827961;19;20493;-66
2023/04/01 14:03:01;;;;;;;4.93;2.70;;;;;;;;;;12826754;19;20339;-66
2023/04/01 14:08:05;;;;;;;6.28;3.63;;;;;;;;;;12828420;19;20334;-67
2023/04/01 14:19:37;;;;;;;4.82;2.45;;;;;;;;;;12830265;19;20437;-67
2023/04/01 14:25:20;;;;;;;7.75;4.22;;;;;;;;;;12824552;19;20330;-67
2023/04/01 14:30:49;;;;;;;4.03;1.73;;;;;;;;;;12825563;19;20760;-66
2023/04/01 14:36:49;;;;;;;33.03;11.77;;;;;;;;;;12720011;19;2005122;-66
2023/04/01 14:41:55;;;;;;;;;;;;;;;;;;12826310;19;20338;-66
2023/04/01 14:47:37;;;;;;;2.42;1.17;;;;;;;;;;12828303;19;20304;-67
2023/04/01 14:52:58;;;;;;;1.92;1.20;;;;;;;;;;12819268;19;20477;-66
2023/04/01 14:58:19;;;;;;;4.25;2.20;;;;;;;;;;12715047;19;2005134;-66
2023/04/01 15:03:11;;;;;;;4.30;2.70;;;;;;;;;;12820800;19;20014;-66
2023/04/01 15:14:48;;;;;;;7.82;3.97;;;;;;;;;;12816062;19;20478;-67
2023/04/01 15:26:18;;;;;;;7.70;3.70;;;;;;;;;;12817783;19;21139;-67
2023/04/01 15:31:42;;;;;;;8.00;4.30;;;;;;;;;;12815676;19;20153;-67
2023/04/01 15:37:36;;;;;;;8.68;5.10;;;;;;;;;;12813565;19;20421;-67
2023/04/01 15:42:50;;;;;;;9.65;5.18;;;;;;;;;;12815286;19;20062;-67
2023/04/01 15:48:20;;;;;;;6.97;4.18;;;;;;;;;;12813440;19;20438;-67
2023/04/01 15:54:20;;;;;;;7.13;4.97;;;;;;;;;;12810784;19;21044;-66
2023/04/01 15:59:41;;;;;;;5.05;3.25;;;;;;;;;;12812038;19;20058;-66
2023/04/01 16:05:11;;;;;;;8.07;4.00;;;;;;;;;;12815149;19;20464;-67
2023/04/01 16:16:53;;;;;;;14.15;7.78;;;;;;;;;;12819732;19;20434;-66
2023/04/01 16:22:06;;;;;;;5.63;2.95;;;;;;;;;;12812760;19;20014;-66
2023/04/01 16:32:54;;;;;;;7.30;4.00;;;;;;;;;;12811350;19;20335;-66
2023/04/01 16:37:48;;;;;;;10.85;4.70;;;;;;;;;;12811711;19;20396;-66
2023/04/01 16:43:07;;;;;;;;;;;;;;;;;;12813402;19;20376;-66
2023/04/01 16:49:10;;;;;;;15.93;7.32;;;;;;;;;;12809983;19;20295;-67
2023/04/01 16:54:38;;;;;;;18.17;9.95;;;;;;;;;;12805381;19;20359;-67
2023/04/01 17:04:57;;;;;;;;;;;;;;;;;;12814367;19;20014;-67
2023/04/01 17:10:37;;;;;;;41.40;24.55;;;;;;;;;;12817408;19;20208;-67
2023/04/01 17:15:51;;;;;;;48.95;21.95;;;;;;;;;;12829498;19;20381;-67
2023/04/01 17:27:18;;;;;;;78.78;35.40;;;;;;;;;;12821793;19;20453;-67
2023/04/01 17:32:41;;;;;;;79.55;37.15;;;;;;;;;;12827213;19;20417;-67
2023/04/01 17:38:38;;;;;;;53.10;31.90;;;;;;;;;;12821316;19;20434;-67
2023/04/01 17:49:00;;;;;;;32.05;17.63;;;;;;;;;;12819997;19;20319;-67
2023/04/01 17:54:09;;;;;;;23.95;14.02;;;;;;;;;;12827438;19;20443;-67
2023/04/01 18:00:03;;;;;;;31.88;14.32;;;;;;;;;;12821335;19;20330;-67
2023/04/01 18:05:36;;;;;;;21.13;10.88;;;;;;;;;;12827774;19;20021;-67
2023/04/01 18:11:04;;;;;;;18.65;7.63;;;;;;;;;;12817769;19;20445;-67
2023/04/01 18:16:18;;;;;;;17.10;8.50;;;;;;;;;;12820024;19;20011;-67
2023/04/01 18:22:04;;;;;;;18.27;9.60;;;;;;;;;;12818023;19;20291;-67
2023/04/01 18:27:38;;;;;;;19.95;10.90;;;;;;;;;;12827564;19;20307;-67
2023/04/01 18:38:15;;;;;;;10.98;5.90;;;;;;;;;;12817848;19;20380;-68
2023/04/01 18:44:02;;;;;;;10.02;5.32;;;;;;;;;;12818702;19;20443;-67
2023/04/01 18:49:54;;;;;;;17.50;6.85;;;;;;;;;;12716049;19;2005153;-67
2023/04/01 18:55:08;;;;;;;10.00;6.10;;;;;;;;;;12817503;19;20813;-67
2023/04/01 18:59:57;;;;;;;7.35;5.15;;;;;;;;;;12817268;19;20473;-67
2023/04/01 19:05:44;;;;;;;7.15;4.32;;;;;;;;;;12816345;19;20350;-67
2023/04/01 19:10:56;;;;;;;13.55;6.10;;;;;;;;;;12815285;19;20354;-67
2023/04/01 19:16:11;;;;;;;10.23;4.28;;;;;;;;;;12814572;19;20031;-67
2023/04/01 19:32:44;;;;;;;6.28;3.45;;;;;;;;;;12813865;19;20430;-67
2023/04/01 19:43:50;;;;;;;10.45;4.32;;;;;;;;;;12823685;19;20378;-67
2023/04/01 19:49:19;;;;;;;17.25;8.85;;;;;;;;;;12824391;19;20426;-67
2023/04/01 20:06:19;;;;;;;17.90;10.85;;;;;;;;;;12819551;19;20442;-67
2023/04/01 20:11:35;;;;;;;11.75;8.02;;;;;;;;;;12822552;19;20322;-67
2023/04/01 20:27:49;;;;;;;21.23;11.15;;;;;;;;;;12813045;19;20454;-67
2023/04/01 20:38:51;;;;;;;21.27;10.02;;;;;;;;;;12814558;19;20441;-67
2023/04/01 20:43:48;;;;;;;18.80;9.18;;;;;;;;;;12819189;19;21000;-67
2023/04/01 20:48:47;;;;;;;28.05;11.95;;;;;;;;;;12819052;19;20326;-67
2023/04/01 20:54:12;;;;;;;28.05;11.60;;;;;;;;;;12818610;19;20472;-68
2023/04/01 20:59:19;;;;;;;21.85;11.15;;;;;;;;;;12814753;19;20452;-67
2023/04/01 21:04:18;;;;;;;17.33;9.48;;;;;;;;;;12819494;19;20318;-67
2023/04/01 21:10:12;;;;;;;25.25;11.52;;;;;;;;;;12818171;19;20014;-67
2023/04/01 21:15:46;;;;;;;21.60;11.27;;;;;;;;;;12818464;19;20011;-67
2023/04/01 21:21:01;;;;;;;16.75;9.10;;;;;;;;;;12817350;19;20355;-67
2023/04/01 21:26:10;;;;;;;12.85;7.28;;;;;;;;;;12818329;19;20364;-67
2023/04/01 21:32:06;;;;;;;30.42;12.90;;;;;;;;;;12816263;19;20448;-67
2023/04/01 21:37:36;;;;;;;22.45;11.15;;;;;;;;;;12813613;19;20521;-67
2023/04/01 21:43:05;;;;;;;17.30;9.95;;;;;;;;;;12815107;19;20474;-67
2023/04/01 21:53:52;;;;;;;;;;;;;;;;;;12814185;19;20815;-68
2023/04/01 22:16:40;;;;;;;13.82;7.85;;;;;;;;;;12826131;19;20473;-67
2023/04/01 22:22:07;;;;;;;11.55;7.57;;;;;;;;;;12828078;19;20426;-67
2023/04/01 22:26:49;;;;;;;10.15;7.05;;;;;;;;;;12828387;19;20382;-67
2023/04/01 22:32:10;;;;;;;16.90;9.50;;;;;;;;;;12826073;19;20026;-67
2023/04/01 22:49:37;;;;;;;14.85;9.07;;;;;;;;;;12724960;19;2005075;-67
2023/04/01 23:06:18;;;;;;;;;;;;;;;;;;12815735;19;20430;-67
2023/04/01 23:11:38;;;;;;;16.13;8.50;;;;;;;;;;12819509;19;20889;-67
2023/04/01 23:23:02;;;;;;;12.27;7.38;;;;;;;;;;12815116;19;20566;-67
2023/04/01 23:28:03;;;;;;;11.65;7.57;;;;;;;;;;12814978;19;20387;-67
2023/04/01 23:32:49;;;;;;;41.60;16.63;;;;;;;;;;12815917;19;20326;-67
2023/04/01 23:38:49;;;;;;;15.07;8.27;;;;;;;;;;12814353;19;20373;-67
2023/04/01 23:44:13;;;;;;;13.00;7.82;;;;;;;;;;12813821;19;20383;-67
2023/04/01 23:49:47;;;;;;;10.45;7.03;;;;;;;;;;12815568;19;20431;-67
2023/04/01 23:54:57;;;;;;;12.68;6.82;;;;;;;;;;12823469;19;20090;-67
2023/04/01 23:59:36;;;;;;;11.32;7.13;;;;;;;;;;12818923;19;20456;-67
